sensor_id;sensor_type;location;lat;lon;timestamp;temperature;humidity
23283;DHT22;11810;51.178;3.878;2023-04-12T00:00:34;9.60;99.90
23283;DHT22;11810;51.178;3.878;2023-04-12T00:03:05;9.60;99.90
23283;DHT22;11810;51.178;3.878;2023-04-12T00:05:32;9.70;99.90
23283;DHT22;11810;51.178;3.878;2023-04-12T00:07:59;9.80;99.90
23283;DHT22;11810;51.178;3.878;2023-04-12T00:10:27;9.80;99.90
23283;DHT22;11810;51.178;3.878;2023-04-12T00:12:53;9.80;99.90
23283;DHT22;11810;51.178;3.878;2023-04-12T00:15:19;9.80;99.90
23283;DHT22;11810;51.178;3.878;2023-04-12T00:17:45;9.80;99.90
23283;DHT22;11810;51.178;3.878;2023-04-12T00:20:11;9.80;99.90
23283;DHT22;11810;51.178;3.878;2023-04-12T00:22:41;9.80;99.90
23283;DHT22;11810;51.178;3.878;2023-04-12T00:25:08;9.80;99.90
23283;DHT22;11810;51.178;3.878;2023-04-12T00:27:34;9.70;99.90
23283;DHT22;11810;51.178;3.878;2023-04-12T00:30:00;9.70;99.90
23283;DHT22;11810;51.178;3.878;2023-04-12T00:32:27;9.70;99.90
23283;DHT22;11810;51.178;3.878;2023-04-12T00:34:53;9.70;99.90
23283;DHT22;11810;51.178;3.878;2023-04-12T00:37:19;9.70;99.90
23283;DHT22;11810;51.178;3.878;2023-04-12T00:39:46;9.60;99.90
23283;DHT22;11810;51.178;3.878;2023-04-12T00:42:13;9.70;99.90
23283;DHT22;11810;51.178;3.878;2023-04-12T00:44:39;9.60;99.90
23283;DHT22;11810;51.178;3.878;2023-04-12T00:47:06;9.60;99.90
23283;DHT22;11810;51.178;3.878;2023-04-12T00:49:33;9.60;99.90
23283;DHT22;11810;51.178;3.878;2023-04-12T00:52:07;9.60;99.90
23283;DHT22;11810;51.178;3.878;2023-04-12T00:54:35;9.70;99.90
23283;DHT22;11810;51.178;3.878;2023-04-12T00:57:02;9.70;99.90
23283;DHT22;11810;51.178;3.878;2023-04-12T00:59:28;9.80;99.90
23283;DHT22;11810;51.178;3.878;2023-04-12T01:01:55;9.80;99.90
23283;DHT22;11810;51.178;3.878;2023-04-12T01:04:21;9.70;99.90
23283;DHT22;11810;51.178;3.878;2023-04-12T01:09:38;9.70;99.90
23283;DHT22;11810;51.178;3.878;2023-04-12T01:12:19;9.70;99.90
23283;DHT22;11810;51.178;3.878;2023-04-12T01:15:08;9.80;99.90
23283;DHT22;11810;51.178;3.878;2023-04-12T01:18:03;9.70;99.90
23283;DHT22;11810;51.178;3.878;2023-04-12T01:20:50;9.80;99.90
23283;DHT22;11810;51.178;3.878;2023-04-12T01:29:03;9.80;99.90
23283;DHT22;11810;51.178;3.878;2023-04-12T01:31:33;9.80;99.90
23283;DHT22;11810;51.178;3.878;2023-04-12T01:34:00;9.70;99.90
23283;DHT22;11810;51.178;3.878;2023-04-12T01:36:28;9.70;99.90
23283;DHT22;11810;51.178;3.878;2023-04-12T01:38:55;9.70;99.90
23283;DHT22;11810;51.178;3.878;2023-04-12T01:41:22;9.80;99.90
23283;DHT22;11810;51.178;3.878;2023-04-12T01:43:48;9.80;99.90
23283;DHT22;11810;51.178;3.878;2023-04-12T01:46:15;9.80;99.90
23283;DHT22;11810;51.178;3.878;2023-04-12T01:48:49;9.80;99.90
23283;DHT22;11810;51.178;3.878;2023-04-12T01:54:05;10.00;99.90
23283;DHT22;11810;51.178;3.878;2023-04-12T01:56:42;9.80;99.90
23283;DHT22;11810;51.178;3.878;2023-04-12T01:59:14;10.00;99.90
23283;DHT22;11810;51.178;3.878;2023-04-12T02:01:41;9.90;99.90
23283;DHT22;11810;51.178;3.878;2023-04-12T02:04:08;9.90;99.90
23283;DHT22;11810;51.178;3.878;2023-04-12T02:06:35;10.00;99.90
23283;DHT22;11810;51.178;3.878;2023-04-12T02:09:03;10.00;99.90
23283;DHT22;11810;51.178;3.878;2023-04-12T02:11:33;10.00;99.90
23283;DHT22;11810;51.178;3.878;2023-04-12T02:13:59;10.00;99.90
23283;DHT22;11810;51.178;3.878;2023-04-12T02:16:25;10.00;99.90
23283;DHT22;11810;51.178;3.878;2023-04-12T02:18:54;10.00;99.90
23283;DHT22;11810;51.178;3.878;2023-04-12T02:21:22;10.00;99.90
23283;DHT22;11810;51.178;3.878;2023-04-12T02:23:48;10.00;99.90
23283;DHT22;11810;51.178;3.878;2023-04-12T02:26:14;9.90;99.90
23283;DHT22;11810;51.178;3.878;2023-04-12T02:28:43;10.00;99.90
23283;DHT22;11810;51.178;3.878;2023-04-12T02:31:09;10.10;99.90
23283;DHT22;11810;51.178;3.878;2023-04-12T02:33:36;10.00;99.90
23283;DHT22;11810;51.178;3.878;2023-04-12T02:36:02;10.00;99.90
23283;DHT22;11810;51.178;3.878;2023-04-12T02:38:28;10.00;99.90
23283;DHT22;11810;51.178;3.878;2023-04-12T02:40:54;10.10;99.90
23283;DHT22;11810;51.178;3.878;2023-04-12T02:43:20;10.30;99.90
23283;DHT22;11810;51.178;3.878;2023-04-12T02:45:47;10.30;99.90
23283;DHT22;11810;51.178;3.878;2023-04-12T02:48:13;10.30;99.90
23283;DHT22;11810;51.178;3.878;2023-04-12T02:50:40;10.40;99.90
23283;DHT22;11810;51.178;3.878;2023-04-12T02:53:05;10.20;99.90
23283;DHT22;11810;51.178;3.878;2023-04-12T02:55:31;10.20;99.90
23283;DHT22;11810;51.178;3.878;2023-04-12T02:57:57;10.20;99.90
23283;DHT22;11810;51.178;3.878;2023-04-12T03:00:23;10.20;99.90
23283;DHT22;11810;51.178;3.878;2023-04-12T03:02:49;10.20;99.90
23283;DHT22;11810;51.178;3.878;2023-04-12T03:05:16;10.20;99.90
23283;DHT22;11810;51.178;3.878;2023-04-12T03:07:43;10.30;99.90
23283;DHT22;11810;51.178;3.878;2023-04-12T03:10:10;10.30;99.90
23283;DHT22;11810;51.178;3.878;2023-04-12T03:12:36;10.40;99.90
23283;DHT22;11810;51.178;3.878;2023-04-12T03:15:03;10.40;99.90
23283;DHT22;11810;51.178;3.878;2023-04-12T03:17:29;10.30;99.90
23283;DHT22;11810;51.178;3.878;2023-04-12T03:19:55;10.30;99.90
23283;DHT22;11810;51.178;3.878;2023-04-12T03:22:22;10.30;99.90
23283;DHT22;11810;51.178;3.878;2023-04-12T03:24:50;10.20;99.90
23283;DHT22;11810;51.178;3.878;2023-04-12T03:27:16;10.20;99.90
23283;DHT22;11810;51.178;3.878;2023-04-12T03:29:42;10.20;99.90
23283;DHT22;11810;51.178;3.878;2023-04-12T03:32:08;10.20;99.90
23283;DHT22;11810;51.178;3.878;2023-04-12T03:34:34;10.20;99.90
23283;DHT22;11810;51.178;3.878;2023-04-12T03:37:01;10.20;99.90
23283;DHT22;11810;51.178;3.878;2023-04-12T03:39:27;10.40;99.90
23283;DHT22;11810;51.178;3.878;2023-04-12T03:41:53;10.50;99.90
23283;DHT22;11810;51.178;3.878;2023-04-12T03:44:19;10.40;99.90
23283;DHT22;11810;51.178;3.878;2023-04-12T03:46:46;10.40;99.90
23283;DHT22;11810;51.178;3.878;2023-04-12T03:49:13;10.40;99.90
23283;DHT22;11810;51.178;3.878;2023-04-12T03:51:39;10.30;99.90
23283;DHT22;11810;51.178;3.878;2023-04-12T03:54:10;10.30;99.90
23283;DHT22;11810;51.178;3.878;2023-04-12T03:56:37;10.40;99.90
23283;DHT22;11810;51.178;3.878;2023-04-12T03:59:06;10.40;99.90
23283;DHT22;11810;51.178;3.878;2023-04-12T04:01:36;10.40;99.90
23283;DHT22;11810;51.178;3.878;2023-04-12T04:04:02;10.40;99.90
23283;DHT22;11810;51.178;3.878;2023-04-12T04:06:29;10.10;99.90
23283;DHT22;11810;51.178;3.878;2023-04-12T04:08:56;9.80;99.90
23283;DHT22;11810;51.178;3.878;2023-04-12T04:11:22;9.70;99.90
23283;DHT22;11810;51.178;3.878;2023-04-12T04:13:49;9.90;99.90
23283;DHT22;11810;51.178;3.878;2023-04-12T04:16:15;9.90;99.90
23283;DHT22;11810;51.178;3.878;2023-04-12T04:18:42;9.90;99.90
23283;DHT22;11810;51.178;3.878;2023-04-12T04:21:08;10.00;99.90
23283;DHT22;11810;51.178;3.878;2023-04-12T04:23:34;9.90;99.90
23283;DHT22;11810;51.178;3.878;2023-04-12T04:26:07;9.80;99.90
23283;DHT22;11810;51.178;3.878;2023-04-12T04:28:37;9.80;99.90
23283;DHT22;11810;51.178;3.878;2023-04-12T04:31:04;9.80;99.90
23283;DHT22;11810;51.178;3.878;2023-04-12T04:33:33;9.80;99.90
23283;DHT22;11810;51.178;3.878;2023-04-12T04:36:01;9.90;99.90
23283;DHT22;11810;51.178;3.878;2023-04-12T04:38:29;9.80;99.90
23283;DHT22;11810;51.178;3.878;2023-04-12T04:41:00;9.80;99.90
23283;DHT22;11810;51.178;3.878;2023-04-12T04:43:30;9.80;99.90
23283;DHT22;11810;51.178;3.878;2023-04-12T04:45:56;9.70;99.90
23283;DHT22;11810;51.178;3.878;2023-04-12T04:48:23;9.80;99.90
23283;DHT22;11810;51.178;3.878;2023-04-12T04:50:49;9.70;99.90
23283;DHT22;11810;51.178;3.878;2023-04-12T04:53:20;9.60;99.90
23283;DHT22;11810;51.178;3.878;2023-04-12T04:55:46;9.70;99.90
23283;DHT22;11810;51.178;3.878;2023-04-12T04:58:13;9.60;99.90
23283;DHT22;11810;51.178;3.878;2023-04-12T05:00:39;9.60;99.90
23283;DHT22;11810;51.178;3.878;2023-04-12T05:03:05;9.60;99.90
23283;DHT22;11810;51.178;3.878;2023-04-12T05:05:31;9.50;99.90
23283;DHT22;11810;51.178;3.878;2023-04-12T05:07:57;9.50;99.90
23283;DHT22;11810;51.178;3.878;2023-04-12T05:10:24;9.60;99.90
23283;DHT22;11810;51.178;3.878;2023-04-12T05:12:49;9.70;99.90
23283;DHT22;11810;51.178;3.878;2023-04-12T05:15:15;9.70;99.90
23283;DHT22;11810;51.178;3.878;2023-04-12T05:17:41;9.70;99.90
23283;DHT22;11810;51.178;3.878;2023-04-12T05:20:08;9.70;99.90
23283;DHT22;11810;51.178;3.878;2023-04-12T05:22:35;9.70;99.90
23283;DHT22;11810;51.178;3.878;2023-04-12T05:25:01;9.60;99.90
23283;DHT22;11810;51.178;3.878;2023-04-12T05:27:29;9.60;99.90
23283;DHT22;11810;51.178;3.878;2023-04-12T05:29:58;9.70;99.90
23283;DHT22;11810;51.178;3.878;2023-04-12T05:32:25;9.70;99.90
23283;DHT22;11810;51.178;3.878;2023-04-12T05:34:51;9.70;99.90
23283;DHT22;11810;51.178;3.878;2023-04-12T05:37:17;9.60;99.90
23283;DHT22;11810;51.178;3.878;2023-04-12T05:39:43;9.60;99.90
23283;DHT22;11810;51.178;3.878;2023-04-12T05:42:09;9.60;99.90
23283;DHT22;11810;51.178;3.878;2023-04-12T05:44:36;9.50;99.90
23283;DHT22;11810;51.178;3.878;2023-04-12T05:47:03;9.50;99.90
23283;DHT22;11810;51.178;3.878;2023-04-12T05:49:29;9.50;99.90
23283;DHT22;11810;51.178;3.878;2023-04-12T05:51:58;9.40;99.90
23283;DHT22;11810;51.178;3.878;2023-04-12T05:54:24;9.30;99.90
23283;DHT22;11810;51.178;3.878;2023-04-12T05:56:51;9.30;99.90
23283;DHT22;11810;51.178;3.878;2023-04-12T05:59:20;9.20;99.90
23283;DHT22;11810;51.178;3.878;2023-04-12T06:01:45;9.20;99.90
23283;DHT22;11810;51.178;3.878;2023-04-12T06:04:12;9.20;99.90
23283;DHT22;11810;51.178;3.878;2023-04-12T06:06:39;9.20;99.90
23283;DHT22;11810;51.178;3.878;2023-04-12T06:09:05;9.30;99.90
23283;DHT22;11810;51.178;3.878;2023-04-12T06:11:31;9.40;99.90
23283;DHT22;11810;51.178;3.878;2023-04-12T06:14:00;9.50;99.90
23283;DHT22;11810;51.178;3.878;2023-04-12T06:16:26;9.40;99.90
23283;DHT22;11810;51.178;3.878;2023-04-12T06:18:52;9.40;99.90
23283;DHT22;11810;51.178;3.878;2023-04-12T06:21:18;9.30;99.90
23283;DHT22;11810;51.178;3.878;2023-04-12T06:23:44;9.40;99.90
23283;DHT22;11810;51.178;3.878;2023-04-12T06:26:10;9.40;99.90
23283;DHT22;11810;51.178;3.878;2023-04-12T06:28:36;9.40;99.90
23283;DHT22;11810;51.178;3.878;2023-04-12T06:31:03;9.40;99.90
23283;DHT22;11810;51.178;3.878;2023-04-12T06:33:29;9.50;99.90
23283;DHT22;11810;51.178;3.878;2023-04-12T06:35:55;10.00;99.90
23283;DHT22;11810;51.178;3.878;2023-04-12T06:38:21;10.60;99.90
23283;DHT22;11810;51.178;3.878;2023-04-12T06:40:47;11.40;99.90
23283;DHT22;11810;51.178;3.878;2023-04-12T06:43:14;11.70;99.90
23283;DHT22;11810;51.178;3.878;2023-04-12T06:45:43;12.10;99.90
23283;DHT22;11810;51.178;3.878;2023-04-12T06:48:10;12.00;99.90
23283;DHT22;11810;51.178;3.878;2023-04-12T06:50:36;11.90;99.90
23283;DHT22;11810;51.178;3.878;2023-04-12T06:53:02;11.90;99.90
23283;DHT22;11810;51.178;3.878;2023-04-12T06:55:28;12.20;99.90
23283;DHT22;11810;51.178;3.878;2023-04-12T06:57:54;12.50;99.90
23283;DHT22;11810;51.178;3.878;2023-04-12T07:00:20;12.70;99.90
23283;DHT22;11810;51.178;3.878;2023-04-12T07:02:46;13.10;99.90
23283;DHT22;11810;51.178;3.878;2023-04-12T07:05:13;12.70;99.90
23283;DHT22;11810;51.178;3.878;2023-04-12T07:07:39;12.60;99.90
23283;DHT22;11810;51.178;3.878;2023-04-12T07:10:05;12.90;99.90
23283;DHT22;11810;51.178;3.878;2023-04-12T07:12:32;12.90;99.90
23283;DHT22;11810;51.178;3.878;2023-04-12T07:14:58;12.80;99.90
23283;DHT22;11810;51.178;3.878;2023-04-12T07:17:24;12.60;99.90
23283;DHT22;11810;51.178;3.878;2023-04-12T07:19:53;12.20;99.90
23283;DHT22;11810;51.178;3.878;2023-04-12T07:22:19;11.90;99.90
23283;DHT22;11810;51.178;3.878;2023-04-12T07:24:46;11.80;99.90
23283;DHT22;11810;51.178;3.878;2023-04-12T07:27:12;11.70;99.90
23283;DHT22;11810;51.178;3.878;2023-04-12T07:29:38;11.20;99.90
23283;DHT22;11810;51.178;3.878;2023-04-12T07:32:04;11.30;99.90
23283;DHT22;11810;51.178;3.878;2023-04-12T07:34:31;11.00;99.90
23283;DHT22;11810;51.178;3.878;2023-04-12T07:36:57;10.90;99.90
23283;DHT22;11810;51.178;3.878;2023-04-12T07:39:23;11.00;99.90
23283;DHT22;11810;51.178;3.878;2023-04-12T07:41:49;10.70;99.90
23283;DHT22;11810;51.178;3.878;2023-04-12T07:44:14;10.70;99.90
23283;DHT22;11810;51.178;3.878;2023-04-12T07:46:40;10.70;99.90
23283;DHT22;11810;51.178;3.878;2023-04-12T07:49:07;10.80;99.90
23283;DHT22;11810;51.178;3.878;2023-04-12T07:51:35;10.90;99.90
23283;DHT22;11810;51.178;3.878;2023-04-12T07:54:01;10.90;99.90
23283;DHT22;11810;51.178;3.878;2023-04-12T07:56:29;10.80;99.90
23283;DHT22;11810;51.178;3.878;2023-04-12T07:58:55;10.80;99.90
23283;DHT22;11810;51.178;3.878;2023-04-12T08:01:20;10.70;99.90
23283;DHT22;11810;51.178;3.878;2023-04-12T08:03:46;10.70;99.90
23283;DHT22;11810;51.178;3.878;2023-04-12T08:06:12;10.80;99.90
23283;DHT22;11810;51.178;3.878;2023-04-12T08:08:38;11.00;99.90
23283;DHT22;11810;51.178;3.878;2023-04-12T08:11:04;10.80;99.90
23283;DHT22;11810;51.178;3.878;2023-04-12T08:13:32;10.40;99.90
23283;DHT22;11810;51.178;3.878;2023-04-12T08:15:58;10.30;99.90
23283;DHT22;11810;51.178;3.878;2023-04-12T08:18:24;10.20;99.90
23283;DHT22;11810;51.178;3.878;2023-04-12T08:20:51;10.40;99.90
23283;DHT22;11810;51.178;3.878;2023-04-12T08:23:17;10.50;99.90
23283;DHT22;11810;51.178;3.878;2023-04-12T08:25:43;10.70;99.90
23283;DHT22;11810;51.178;3.878;2023-04-12T08:28:09;11.00;99.90
23283;DHT22;11810;51.178;3.878;2023-04-12T08:30:35;11.20;99.90
23283;DHT22;11810;51.178;3.878;2023-04-12T08:33:01;11.60;99.90
23283;DHT22;11810;51.178;3.878;2023-04-12T08:35:27;12.00;99.90
23283;DHT22;11810;51.178;3.878;2023-04-12T08:37:53;12.30;99.90
23283;DHT22;11810;51.178;3.878;2023-04-12T08:40:19;12.80;99.90
23283;DHT22;11810;51.178;3.878;2023-04-12T08:42:46;13.10;99.90
23283;DHT22;11810;51.178;3.878;2023-04-12T08:45:12;13.30;99.90
23283;DHT22;11810;51.178;3.878;2023-04-12T08:47:43;13.50;99.90
23283;DHT22;11810;51.178;3.878;2023-04-12T08:50:11;13.30;99.90
23283;DHT22;11810;51.178;3.878;2023-04-12T08:52:42;13.20;99.90
23283;DHT22;11810;51.178;3.878;2023-04-12T08:55:08;13.70;99.90
23283;DHT22;11810;51.178;3.878;2023-04-12T08:57:35;14.10;99.90
23283;DHT22;11810;51.178;3.878;2023-04-12T09:00:04;14.40;99.90
23283;DHT22;11810;51.178;3.878;2023-04-12T09:02:34;14.80;99.90
23283;DHT22;11810;51.178;3.878;2023-04-12T09:05:01;14.90;99.90
23283;DHT22;11810;51.178;3.878;2023-04-12T09:07:27;14.90;99.90
23283;DHT22;11810;51.178;3.878;2023-04-12T09:09:56;14.40;99.90
23283;DHT22;11810;51.178;3.878;2023-04-12T09:12:23;14.00;99.90
23283;DHT22;11810;51.178;3.878;2023-04-12T09:17:31;12.90;99.90
23283;DHT22;11810;51.178;3.878;2023-04-12T09:19:58;12.50;99.90
23283;DHT22;11810;51.178;3.878;2023-04-12T09:22:34;12.40;99.90
23283;DHT22;11810;51.178;3.878;2023-04-12T09:25:00;12.00;99.90
23283;DHT22;11810;51.178;3.878;2023-04-12T09:27:26;12.10;99.90
23283;DHT22;11810;51.178;3.878;2023-04-12T09:30:08;12.00;99.90
23283;DHT22;11810;51.178;3.878;2023-04-12T09:32:34;11.70;99.90
23283;DHT22;11810;51.178;3.878;2023-04-12T09:35:00;11.70;99.90
23283;DHT22;11810;51.178;3.878;2023-04-12T09:37:27;11.80;99.90
23283;DHT22;11810;51.178;3.878;2023-04-12T09:40:07;11.90;99.90
23283;DHT22;11810;51.178;3.878;2023-04-12T09:42:34;11.90;99.90
23283;DHT22;11810;51.178;3.878;2023-04-12T09:45:19;11.60;99.90
23283;DHT22;11810;51.178;3.878;2023-04-12T09:47:46;11.70;99.90
23283;DHT22;11810;51.178;3.878;2023-04-12T09:50:26;11.50;99.90
23283;DHT22;11810;51.178;3.878;2023-04-12T09:52:54;11.40;99.90
23283;DHT22;11810;51.178;3.878;2023-04-12T09:55:22;11.30;99.90
23283;DHT22;11810;51.178;3.878;2023-04-12T09:57:50;11.20;99.90
23283;DHT22;11810;51.178;3.878;2023-04-12T10:00:17;11.30;99.90
23283;DHT22;11810;51.178;3.878;2023-04-12T10:02:45;11.10;99.90
23283;DHT22;11810;51.178;3.878;2023-04-12T10:05:14;11.00;99.90
23283;DHT22;11810;51.178;3.878;2023-04-12T10:07:42;11.10;99.90
23283;DHT22;11810;51.178;3.878;2023-04-12T10:10:10;11.70;99.90
23283;DHT22;11810;51.178;3.878;2023-04-12T10:12:41;12.30;99.90
23283;DHT22;11810;51.178;3.878;2023-04-12T10:15:09;12.70;99.90
23283;DHT22;11810;51.178;3.878;2023-04-12T10:20:12;14.20;99.90
23283;DHT22;11810;51.178;3.878;2023-04-12T10:22:42;14.30;99.90
23283;DHT22;11810;51.178;3.878;2023-04-12T10:25:20;13.90;99.90
23283;DHT22;11810;51.178;3.878;2023-04-12T10:27:47;13.30;99.90
23283;DHT22;11810;51.178;3.878;2023-04-12T10:33:33;12.90;99.90
23283;DHT22;11810;51.178;3.878;2023-04-12T10:35:50;12.80;99.90
23283;DHT22;11810;51.178;3.878;2023-04-12T10:38:16;13.10;99.90
23283;DHT22;11810;51.178;3.878;2023-04-12T10:43:33;14.20;99.90
23283;DHT22;11810;51.178;3.878;2023-04-12T10:45:59;14.10;99.90
23283;DHT22;11810;51.178;3.878;2023-04-12T10:48:51;15.30;99.90
23283;DHT22;11810;51.178;3.878;2023-04-12T10:51:22;16.40;99.90
23283;DHT22;11810;51.178;3.878;2023-04-12T10:56:38;15.40;99.90
23283;DHT22;11810;51.178;3.878;2023-04-12T10:59:12;14.40;99.90
23283;DHT22;11810;51.178;3.878;2023-04-12T11:01:39;12.70;99.90
23283;DHT22;11810;51.178;3.878;2023-04-12T11:07:27;9.70;99.90
23283;DHT22;11810;51.178;3.878;2023-04-12T11:19:43;10.20;99.90
23283;DHT22;11810;51.178;3.878;2023-04-12T11:22:14;11.10;99.90
23283;DHT22;11810;51.178;3.878;2023-04-12T11:24:49;12.70;99.90
23283;DHT22;11810;51.178;3.878;2023-04-12T11:27:16;13.70;99.90
23283;DHT22;11810;51.178;3.878;2023-04-12T11:29:44;14.60;99.90
23283;DHT22;11810;51.178;3.878;2023-04-12T11:32:13;14.70;99.90
23283;DHT22;11810;51.178;3.878;2023-04-12T11:34:40;15.00;99.90
23283;DHT22;11810;51.178;3.878;2023-04-12T11:37:07;14.90;99.90
23283;DHT22;11810;51.178;3.878;2023-04-12T11:39:39;15.30;99.90
23283;DHT22;11810;51.178;3.878;2023-04-12T11:42:05;16.20;99.90
23283;DHT22;11810;51.178;3.878;2023-04-12T11:44:34;16.70;99.90
23283;DHT22;11810;51.178;3.878;2023-04-12T11:47:02;17.30;99.90
23283;DHT22;11810;51.178;3.878;2023-04-12T11:49:28;17.20;99.90
23283;DHT22;11810;51.178;3.878;2023-04-12T11:52:02;16.20;99.90
23283;DHT22;11810;51.178;3.878;2023-04-12T11:54:30;14.90;99.90
23283;DHT22;11810;51.178;3.878;2023-04-12T11:56:57;14.10;99.90
23283;DHT22;11810;51.178;3.878;2023-04-12T11:59:32;13.40;99.90
23283;DHT22;11810;51.178;3.878;2023-04-12T12:02:00;12.60;99.90
23283;DHT22;11810;51.178;3.878;2023-04-12T12:04:27;12.40;99.90
23283;DHT22;11810;51.178;3.878;2023-04-12T12:06:57;12.90;99.90
23283;DHT22;11810;51.178;3.878;2023-04-12T12:09:26;13.80;99.90
23283;DHT22;11810;51.178;3.878;2023-04-12T12:11:53;13.50;99.90
23283;DHT22;11810;51.178;3.878;2023-04-12T12:14:21;13.80;99.90
23283;DHT22;11810;51.178;3.878;2023-04-12T12:16:52;14.80;99.90
23283;DHT22;11810;51.178;3.878;2023-04-12T12:19:35;15.40;99.90
23283;DHT22;11810;51.178;3.878;2023-04-12T12:22:18;14.60;99.90
23283;DHT22;11810;51.178;3.878;2023-04-12T12:29:55;12.90;99.90
23283;DHT22;11810;51.178;3.878;2023-04-12T12:32:25;12.90;99.90
23283;DHT22;11810;51.178;3.878;2023-04-12T12:34:52;12.80;99.90
23283;DHT22;11810;51.178;3.878;2023-04-12T12:37:28;12.70;99.90
23283;DHT22;11810;51.178;3.878;2023-04-12T12:40:11;11.70;99.90
23283;DHT22;11810;51.178;3.878;2023-04-12T12:42:52;10.30;99.90
23283;DHT22;11810;51.178;3.878;2023-04-12T12:45:24;8.90;99.90
23283;DHT22;11810;51.178;3.878;2023-04-12T12:48:03;8.10;99.90
23283;DHT22;11810;51.178;3.878;2023-04-12T12:50:31;7.80;99.90
23283;DHT22;11810;51.178;3.878;2023-04-12T12:52:58;8.10;99.90
23283;DHT22;11810;51.178;3.878;2023-04-12T12:55:28;8.70;99.90
23283;DHT22;11810;51.178;3.878;2023-04-12T12:57:55;9.40;99.90
23283;DHT22;11810;51.178;3.878;2023-04-12T13:00:23;10.40;99.90
23283;DHT22;11810;51.178;3.878;2023-04-12T13:02:49;11.30;99.90
23283;DHT22;11810;51.178;3.878;2023-04-12T13:05:18;11.70;99.90
23283;DHT22;11810;51.178;3.878;2023-04-12T13:07:44;12.60;99.90
23283;DHT22;11810;51.178;3.878;2023-04-12T13:10:11;12.90;99.90
23283;DHT22;11810;51.178;3.878;2023-04-12T13:12:37;13.20;99.90
23283;DHT22;11810;51.178;3.878;2023-04-12T13:15:03;13.30;99.90
23283;DHT22;11810;51.178;3.878;2023-04-12T13:17:30;14.10;99.90
23283;DHT22;11810;51.178;3.878;2023-04-12T13:19:56;14.30;99.90
23283;DHT22;11810;51.178;3.878;2023-04-12T13:22:22;14.40;99.90
23283;DHT22;11810;51.178;3.878;2023-04-12T13:24:48;14.60;99.90
23283;DHT22;11810;51.178;3.878;2023-04-12T13:27:15;14.80;99.90
23283;DHT22;11810;51.178;3.878;2023-04-12T13:29:42;14.10;99.90
23283;DHT22;11810;51.178;3.878;2023-04-12T13:32:08;13.40;99.90
23283;DHT22;11810;51.178;3.878;2023-04-12T13:34:34;12.70;99.90
23283;DHT22;11810;51.178;3.878;2023-04-12T13:37:00;12.00;99.90
23283;DHT22;11810;51.178;3.878;2023-04-12T13:39:26;11.50;99.90
23283;DHT22;11810;51.178;3.878;2023-04-12T13:41:52;12.10;99.90
23283;DHT22;11810;51.178;3.878;2023-04-12T13:44:18;12.60;99.90
23283;DHT22;11810;51.178;3.878;2023-04-12T13:46:45;12.60;99.90
23283;DHT22;11810;51.178;3.878;2023-04-12T13:49:11;12.70;99.90
23283;DHT22;11810;51.178;3.878;2023-04-12T13:51:37;12.70;99.90
23283;DHT22;11810;51.178;3.878;2023-04-12T13:54:03;13.00;99.90
23283;DHT22;11810;51.178;3.878;2023-04-12T13:56:29;13.40;99.90
23283;DHT22;11810;51.178;3.878;2023-04-12T13:58:55;13.90;99.90
23283;DHT22;11810;51.178;3.878;2023-04-12T14:01:22;14.40;99.90
23283;DHT22;11810;51.178;3.878;2023-04-12T14:03:50;15.00;99.90
23283;DHT22;11810;51.178;3.878;2023-04-12T14:06:16;15.40;99.90
23283;DHT22;11810;51.178;3.878;2023-04-12T14:08:42;14.80;99.90
23283;DHT22;11810;51.178;3.878;2023-04-12T14:11:08;14.50;99.90
23283;DHT22;11810;51.178;3.878;2023-04-12T14:13:34;14.30;99.90
23283;DHT22;11810;51.178;3.878;2023-04-12T14:16:00;13.60;99.90
23283;DHT22;11810;51.178;3.878;2023-04-12T14:18:26;13.60;99.90
23283;DHT22;11810;51.178;3.878;2023-04-12T14:20:51;14.30;99.90
23283;DHT22;11810;51.178;3.878;2023-04-12T14:23:19;13.70;99.90
23283;DHT22;11810;51.178;3.878;2023-04-12T14:25:48;12.90;99.90
23283;DHT22;11810;51.178;3.878;2023-04-12T14:28:14;12.90;99.90
23283;DHT22;11810;51.178;3.878;2023-04-12T14:30:45;13.40;99.90
23283;DHT22;11810;51.178;3.878;2023-04-12T14:33:11;13.40;99.90
23283;DHT22;11810;51.178;3.878;2023-04-12T14:35:37;13.30;99.90
23283;DHT22;11810;51.178;3.878;2023-04-12T14:38:03;13.60;99.90
23283;DHT22;11810;51.178;3.878;2023-04-12T14:40:30;13.50;99.90
23283;DHT22;11810;51.178;3.878;2023-04-12T14:42:56;13.30;99.90
23283;DHT22;11810;51.178;3.878;2023-04-12T14:45:22;13.30;99.90
23283;DHT22;11810;51.178;3.878;2023-04-12T14:47:48;13.20;99.90
23283;DHT22;11810;51.178;3.878;2023-04-12T14:50:14;13.40;99.90
23283;DHT22;11810;51.178;3.878;2023-04-12T14:52:40;13.60;99.90
23283;DHT22;11810;51.178;3.878;2023-04-12T14:55:07;13.60;99.90
23283;DHT22;11810;51.178;3.878;2023-04-12T14:57:33;13.20;99.90
23283;DHT22;11810;51.178;3.878;2023-04-12T14:59:59;12.70;99.90
23283;DHT22;11810;51.178;3.878;2023-04-12T15:02:26;12.10;99.90
23283;DHT22;11810;51.178;3.878;2023-04-12T15:04:52;12.70;99.90
23283;DHT22;11810;51.178;3.878;2023-04-12T15:07:18;13.30;99.90
23283;DHT22;11810;51.178;3.878;2023-04-12T15:09:44;13.60;99.90
23283;DHT22;11810;51.178;3.878;2023-04-12T15:12:10;13.50;99.90
23283;DHT22;11810;51.178;3.878;2023-04-12T15:14:36;12.60;99.90
23283;DHT22;11810;51.178;3.878;2023-04-12T15:17:02;12.80;99.90
23283;DHT22;11810;51.178;3.878;2023-04-12T15:19:30;13.60;99.90
23283;DHT22;11810;51.178;3.878;2023-04-12T15:21:56;13.60;99.90
23283;DHT22;11810;51.178;3.878;2023-04-12T15:24:22;13.50;99.90
23283;DHT22;11810;51.178;3.878;2023-04-12T15:26:49;13.20;99.90
23283;DHT22;11810;51.178;3.878;2023-04-12T15:29:18;13.30;99.90
23283;DHT22;11810;51.178;3.878;2023-04-12T15:31:44;13.40;99.90
23283;DHT22;11810;51.178;3.878;2023-04-12T15:34:11;13.50;99.90
23283;DHT22;11810;51.178;3.878;2023-04-12T15:36:38;13.20;99.90
23283;DHT22;11810;51.178;3.878;2023-04-12T15:39:08;12.80;99.90
23283;DHT22;11810;51.178;3.878;2023-04-12T15:41:36;12.70;99.90
23283;DHT22;11810;51.178;3.878;2023-04-12T15:44:06;13.00;99.90
23283;DHT22;11810;51.178;3.878;2023-04-12T15:46:33;13.10;99.90
23283;DHT22;11810;51.178;3.878;2023-04-12T15:48:59;13.00;99.90
23283;DHT22;11810;51.178;3.878;2023-04-12T15:51:28;13.00;99.90
23283;DHT22;11810;51.178;3.878;2023-04-12T15:53:54;12.90;99.90
23283;DHT22;11810;51.178;3.878;2023-04-12T15:56:20;12.80;99.90
23283;DHT22;11810;51.178;3.878;2023-04-12T15:58:56;13.00;99.90
23283;DHT22;11810;51.178;3.878;2023-04-12T16:01:23;13.20;99.90
23283;DHT22;11810;51.178;3.878;2023-04-12T16:03:50;13.40;99.90
23283;DHT22;11810;51.178;3.878;2023-04-12T16:06:18;13.40;99.90
23283;DHT22;11810;51.178;3.878;2023-04-12T16:08:52;13.30;99.90
23283;DHT22;11810;51.178;3.878;2023-04-12T16:11:22;13.20;99.90
23283;DHT22;11810;51.178;3.878;2023-04-12T16:13:48;13.10;99.90
23283;DHT22;11810;51.178;3.878;2023-04-12T16:16:16;12.90;99.90
23283;DHT22;11810;51.178;3.878;2023-04-12T16:18:44;12.70;99.90
23283;DHT22;11810;51.178;3.878;2023-04-12T16:21:10;12.50;99.90